Shamrock Shores, Texas
Current Conditions -  °F | °C
As of 3:35 PM on Saturday 22 Nov 2014 (Local Time) from KBWD Reporting Station
Overcast Overcast  
Wind Chill: 63°   Ceiling: 1200
Heat Index: 63°   Visibility: 10mi
Dew Point: 61°   Wind: 9mph
Humidity: 94%   Direction: 120°ESE
Pressure: 29.8"   Gusts: NA
Location:  31.6193°N, 98.9922°W
Report Text: KBWD 222135Z AUTO 12008KT 10SM SCT007 BKN012 OVC045 17/16 A2980 RMK AO2
Loading
Personal Weather Stations






























Interactive Weather Map New forecast layout! Learn more

10-Day Weather Forecast

Advertisements
Track Severe Weather on mobile